sensor_id;sensor_type;location;lat;lon;timestamp;temperature;humidity
14604;DHT22;7388;51.078;13.740;2023-09-08T00:01:58;21.90;44.50
14604;DHT22;7388;51.078;13.740;2023-09-08T00:04:24;21.80;44.30
14604;DHT22;7388;51.078;13.740;2023-09-08T00:06:50;21.80;44.80
14604;DHT22;7388;51.078;13.740;2023-09-08T00:09:16;21.80;44.10
14604;DHT22;7388;51.078;13.740;2023-09-08T00:11:42;21.80;43.90
14604;DHT22;7388;51.078;13.740;2023-09-08T00:14:07;21.80;43.80
14604;DHT22;7388;51.078;13.740;2023-09-08T00:16:33;21.90;43.50
14604;DHT22;7388;51.078;13.740;2023-09-08T00:18:59;21.90;43.80
14604;DHT22;7388;51.078;13.740;2023-09-08T00:21:25;21.80;43.80
14604;DHT22;7388;51.078;13.740;2023-09-08T00:23:52;21.80;43.70
14604;DHT22;7388;51.078;13.740;2023-09-08T00:26:18;21.70;43.60
14604;DHT22;7388;51.078;13.740;2023-09-08T00:28:43;21.70;44.00
14604;DHT22;7388;51.078;13.740;2023-09-08T00:31:09;21.60;44.00
14604;DHT22;7388;51.078;13.740;2023-09-08T00:33:35;21.60;43.80
14604;DHT22;7388;51.078;13.740;2023-09-08T00:36:01;21.60;44.70
14604;DHT22;7388;51.078;13.740;2023-09-08T00:38:26;21.60;44.00
14604;DHT22;7388;51.078;13.740;2023-09-08T00:40:52;21.60;44.10
14604;DHT22;7388;51.078;13.740;2023-09-08T00:43:18;21.50;43.90
14604;DHT22;7388;51.078;13.740;2023-09-08T00:45:45;21.50;43.90
14604;DHT22;7388;51.078;13.740;2023-09-08T00:48:11;21.50;44.20
14604;DHT22;7388;51.078;13.740;2023-09-08T00:50:38;21.50;44.50
14604;DHT22;7388;51.078;13.740;2023-09-08T00:53:05;21.50;44.30
14604;DHT22;7388;51.078;13.740;2023-09-08T00:55:32;21.40;44.30
14604;DHT22;7388;51.078;13.740;2023-09-08T00:57:58;21.40;44.30
14604;DHT22;7388;51.078;13.740;2023-09-08T01:00:25;21.40;43.90
14604;DHT22;7388;51.078;13.740;2023-09-08T01:02:51;21.30;44.10
14604;DHT22;7388;51.078;13.740;2023-09-08T01:05:17;21.40;44.30
14604;DHT22;7388;51.078;13.740;2023-09-08T01:07:44;21.30;44.90
14604;DHT22;7388;51.078;13.740;2023-09-08T01:10:10;21.30;44.00
14604;DHT22;7388;51.078;13.740;2023-09-08T01:12:36;21.30;44.30
14604;DHT22;7388;51.078;13.740;2023-09-08T01:15:03;21.30;44.20
14604;DHT22;7388;51.078;13.740;2023-09-08T01:17:30;21.20;44.30
14604;DHT22;7388;51.078;13.740;2023-09-08T01:19:56;21.20;44.50
14604;DHT22;7388;51.078;13.740;2023-09-08T01:27:32;21.20;44.30
14604;DHT22;7388;51.078;13.740;2023-09-08T01:29:59;21.20;44.60
14604;DHT22;7388;51.078;13.740;2023-09-08T01:32:26;21.10;44.60
14604;DHT22;7388;51.078;13.740;2023-09-08T01:34:52;21.20;44.50
14604;DHT22;7388;51.078;13.740;2023-09-08T01:37:18;21.10;44.30
14604;DHT22;7388;51.078;13.740;2023-09-08T01:39:47;21.20;44.20
14604;DHT22;7388;51.078;13.740;2023-09-08T01:42:13;21.20;44.30
14604;DHT22;7388;51.078;13.740;2023-09-08T01:44:38;21.20;45.40
14604;DHT22;7388;51.078;13.740;2023-09-08T01:47:04;21.10;44.70
14604;DHT22;7388;51.078;13.740;2023-09-08T01:49:30;21.10;44.50
14604;DHT22;7388;51.078;13.740;2023-09-08T01:51:55;21.10;44.30
14604;DHT22;7388;51.078;13.740;2023-09-08T01:54:21;21.10;44.40
14604;DHT22;7388;51.078;13.740;2023-09-08T01:56:47;21.10;44.90
14604;DHT22;7388;51.078;13.740;2023-09-08T01:59:13;21.00;44.20
14604;DHT22;7388;51.078;13.740;2023-09-08T02:01:39;21.00;44.50
14604;DHT22;7388;51.078;13.740;2023-09-08T02:04:05;21.00;44.90
14604;DHT22;7388;51.078;13.740;2023-09-08T02:06:31;21.00;44.60
14604;DHT22;7388;51.078;13.740;2023-09-08T02:08:57;20.90;44.70
14604;DHT22;7388;51.078;13.740;2023-09-08T02:11:22;20.90;44.40
14604;DHT22;7388;51.078;13.740;2023-09-08T02:13:48;20.90;44.80
14604;DHT22;7388;51.078;13.740;2023-09-08T02:16:15;20.80;45.00
14604;DHT22;7388;51.078;13.740;2023-09-08T02:18:44;20.80;45.10
14604;DHT22;7388;51.078;13.740;2023-09-08T02:21:11;20.80;44.60
14604;DHT22;7388;51.078;13.740;2023-09-08T02:23:37;20.80;44.80
14604;DHT22;7388;51.078;13.740;2023-09-08T02:26:03;20.70;44.90
14604;DHT22;7388;51.078;13.740;2023-09-08T02:28:29;20.70;44.90
14604;DHT22;7388;51.078;13.740;2023-09-08T02:30:55;20.70;45.00
14604;DHT22;7388;51.078;13.740;2023-09-08T02:33:21;20.70;45.20
14604;DHT22;7388;51.078;13.740;2023-09-08T02:35:46;20.60;45.00
14604;DHT22;7388;51.078;13.740;2023-09-08T02:38:12;20.60;44.80
14604;DHT22;7388;51.078;13.740;2023-09-08T02:40:38;20.60;44.80
14604;DHT22;7388;51.078;13.740;2023-09-08T02:43:04;20.50;45.10
14604;DHT22;7388;51.078;13.740;2023-09-08T02:45:30;20.50;45.10
14604;DHT22;7388;51.078;13.740;2023-09-08T02:47:56;20.50;45.20
14604;DHT22;7388;51.078;13.740;2023-09-08T02:50:22;20.40;45.00
14604;DHT22;7388;51.078;13.740;2023-09-08T02:55:17;20.40;45.40
14604;DHT22;7388;51.078;13.740;2023-09-08T02:57:43;20.40;45.40
14604;DHT22;7388;51.078;13.740;2023-09-08T03:00:09;20.40;46.10
14604;DHT22;7388;51.078;13.740;2023-09-08T03:02:35;20.30;45.40
14604;DHT22;7388;51.078;13.740;2023-09-08T03:05:01;20.40;45.10
14604;DHT22;7388;51.078;13.740;2023-09-08T03:07:27;20.40;45.40
14604;DHT22;7388;51.078;13.740;2023-09-08T03:09:53;20.40;44.90
14604;DHT22;7388;51.078;13.740;2023-09-08T03:12:19;20.40;45.10
14604;DHT22;7388;51.078;13.740;2023-09-08T03:14:45;20.40;44.80
14604;DHT22;7388;51.078;13.740;2023-09-08T03:17:13;20.40;45.10
14604;DHT22;7388;51.078;13.740;2023-09-08T03:19:39;20.40;45.10
14604;DHT22;7388;51.078;13.740;2023-09-08T03:22:05;20.40;45.20
14604;DHT22;7388;51.078;13.740;2023-09-08T03:24:31;20.40;45.10
14604;DHT22;7388;51.078;13.740;2023-09-08T03:26:56;20.50;45.20
14604;DHT22;7388;51.078;13.740;2023-09-08T03:29:23;20.40;45.30
14604;DHT22;7388;51.078;13.740;2023-09-08T03:31:49;20.40;45.30
14604;DHT22;7388;51.078;13.740;2023-09-08T03:34:15;20.40;45.20
14604;DHT22;7388;51.078;13.740;2023-09-08T03:36:40;20.40;45.50
14604;DHT22;7388;51.078;13.740;2023-09-08T03:39:06;20.30;45.40
14604;DHT22;7388;51.078;13.740;2023-09-08T03:41:34;20.20;45.50
14604;DHT22;7388;51.078;13.740;2023-09-08T03:44:00;20.20;45.30
14604;DHT22;7388;51.078;13.740;2023-09-08T03:46:25;20.20;45.30
14604;DHT22;7388;51.078;13.740;2023-09-08T03:48:51;20.10;45.50
14604;DHT22;7388;51.078;13.740;2023-09-08T03:51:18;20.10;45.20
14604;DHT22;7388;51.078;13.740;2023-09-08T03:53:43;20.20;45.10
14604;DHT22;7388;51.078;13.740;2023-09-08T03:56:09;20.20;45.20
14604;DHT22;7388;51.078;13.740;2023-09-08T03:58:35;20.20;45.30
14604;DHT22;7388;51.078;13.740;2023-09-08T04:01:00;20.20;45.90
14604;DHT22;7388;51.078;13.740;2023-09-08T04:03:26;20.10;45.10
14604;DHT22;7388;51.078;13.740;2023-09-08T04:05:52;20.10;45.20
14604;DHT22;7388;51.078;13.740;2023-09-08T04:08:17;20.10;45.00
14604;DHT22;7388;51.078;13.740;2023-09-08T04:10:43;20.00;45.20
14604;DHT22;7388;51.078;13.740;2023-09-08T04:13:09;20.00;45.10
14604;DHT22;7388;51.078;13.740;2023-09-08T04:15:35;20.00;45.30
14604;DHT22;7388;51.078;13.740;2023-09-08T04:18:00;20.00;45.30
14604;DHT22;7388;51.078;13.740;2023-09-08T04:20:26;19.90;45.40
14604;DHT22;7388;51.078;13.740;2023-09-08T04:22:52;19.80;45.20
14604;DHT22;7388;51.078;13.740;2023-09-08T04:25:18;19.90;45.40
14604;DHT22;7388;51.078;13.740;2023-09-08T04:27:44;19.80;45.20
14604;DHT22;7388;51.078;13.740;2023-09-08T04:30:10;19.70;45.40
14604;DHT22;7388;51.078;13.740;2023-09-08T04:32:36;19.70;45.40
14604;DHT22;7388;51.078;13.740;2023-09-08T04:35:03;19.70;45.50
14604;DHT22;7388;51.078;13.740;2023-09-08T04:37:29;19.70;45.60
14604;DHT22;7388;51.078;13.740;2023-09-08T04:39:56;19.60;45.80
14604;DHT22;7388;51.078;13.740;2023-09-08T04:42:22;19.60;45.80
14604;DHT22;7388;51.078;13.740;2023-09-08T04:44:48;19.60;45.80
14604;DHT22;7388;51.078;13.740;2023-09-08T04:47:14;19.70;45.80
14604;DHT22;7388;51.078;13.740;2023-09-08T04:49:40;19.60;45.60
14604;DHT22;7388;51.078;13.740;2023-09-08T04:52:06;19.60;45.70
14604;DHT22;7388;51.078;13.740;2023-09-08T04:54:31;19.60;46.00
14604;DHT22;7388;51.078;13.740;2023-09-08T04:56:58;19.60;45.90
14604;DHT22;7388;51.078;13.740;2023-09-08T04:59:23;19.60;45.90
14604;DHT22;7388;51.078;13.740;2023-09-08T05:01:50;19.60;45.70
14604;DHT22;7388;51.078;13.740;2023-09-08T05:04:17;19.60;45.90
14604;DHT22;7388;51.078;13.740;2023-09-08T05:06:43;19.70;46.10
14604;DHT22;7388;51.078;13.740;2023-09-08T05:09:09;19.70;46.00
14604;DHT22;7388;51.078;13.740;2023-09-08T05:11:35;19.70;46.30
14604;DHT22;7388;51.078;13.740;2023-09-08T05:14:02;19.80;46.10
14604;DHT22;7388;51.078;13.740;2023-09-08T05:16:28;19.80;45.90
14604;DHT22;7388;51.078;13.740;2023-09-08T05:19:26;19.90;46.20
14604;DHT22;7388;51.078;13.740;2023-09-08T05:21:54;20.00;46.10
14604;DHT22;7388;51.078;13.740;2023-09-08T05:24:20;20.00;46.20
14604;DHT22;7388;51.078;13.740;2023-09-08T05:26:46;20.10;45.90
14604;DHT22;7388;51.078;13.740;2023-09-08T05:29:13;20.20;46.00
14604;DHT22;7388;51.078;13.740;2023-09-08T05:31:39;20.30;45.80
14604;DHT22;7388;51.078;13.740;2023-09-08T05:34:04;20.40;46.10
14604;DHT22;7388;51.078;13.740;2023-09-08T05:36:30;20.60;45.60
14604;DHT22;7388;51.078;13.740;2023-09-08T05:38:59;20.70;45.40
14604;DHT22;7388;51.078;13.740;2023-09-08T05:41:24;20.80;45.40
14604;DHT22;7388;51.078;13.740;2023-09-08T05:43:50;20.90;45.30
14604;DHT22;7388;51.078;13.740;2023-09-08T05:46:16;21.00;45.40
14604;DHT22;7388;51.078;13.740;2023-09-08T05:48:42;21.10;45.40
14604;DHT22;7388;51.078;13.740;2023-09-08T05:51:08;21.20;45.30
14604;DHT22;7388;51.078;13.740;2023-09-08T05:53:34;21.30;45.60
14604;DHT22;7388;51.078;13.740;2023-09-08T05:56:01;21.30;45.40
14604;DHT22;7388;51.078;13.740;2023-09-08T05:58:27;21.40;45.60
14604;DHT22;7388;51.078;13.740;2023-09-08T06:00:55;21.50;45.20
14604;DHT22;7388;51.078;13.740;2023-09-08T06:03:21;21.70;45.40
14604;DHT22;7388;51.078;13.740;2023-09-08T06:05:47;21.70;45.10
14604;DHT22;7388;51.078;13.740;2023-09-08T06:08:13;21.80;44.90
14604;DHT22;7388;51.078;13.740;2023-09-08T06:10:39;21.90;45.10
14604;DHT22;7388;51.078;13.740;2023-09-08T06:13:04;22.00;45.00
14604;DHT22;7388;51.078;13.740;2023-09-08T06:15:30;22.10;45.10
14604;DHT22;7388;51.078;13.740;2023-09-08T06:17:56;22.20;45.10
14604;DHT22;7388;51.078;13.740;2023-09-08T06:20:22;22.30;44.90
14604;DHT22;7388;51.078;13.740;2023-09-08T06:22:48;22.40;44.60
14604;DHT22;7388;51.078;13.740;2023-09-08T06:25:14;22.50;44.80
14604;DHT22;7388;51.078;13.740;2023-09-08T06:27:40;22.60;44.70
14604;DHT22;7388;51.078;13.740;2023-09-08T06:30:06;22.60;44.70
14604;DHT22;7388;51.078;13.740;2023-09-08T06:32:32;22.80;44.60
14604;DHT22;7388;51.078;13.740;2023-09-08T06:34:58;22.90;44.50
14604;DHT22;7388;51.078;13.740;2023-09-08T06:37:23;22.90;44.50
14604;DHT22;7388;51.078;13.740;2023-09-08T06:39:49;23.10;44.20
14604;DHT22;7388;51.078;13.740;2023-09-08T06:42:15;23.10;44.30
14604;DHT22;7388;51.078;13.740;2023-09-08T06:44:40;23.20;44.00
14604;DHT22;7388;51.078;13.740;2023-09-08T06:47:06;23.30;44.20
14604;DHT22;7388;51.078;13.740;2023-09-08T06:49:33;23.40;43.50
14604;DHT22;7388;51.078;13.740;2023-09-08T06:51:59;23.40;43.80
14604;DHT22;7388;51.078;13.740;2023-09-08T06:54:24;23.50;43.60
14604;DHT22;7388;51.078;13.740;2023-09-08T06:56:50;23.60;43.40
14604;DHT22;7388;51.078;13.740;2023-09-08T06:59:16;23.70;43.60
14604;DHT22;7388;51.078;13.740;2023-09-08T07:01:42;23.80;43.00
14604;DHT22;7388;51.078;13.740;2023-09-08T07:04:08;23.90;42.60
14604;DHT22;7388;51.078;13.740;2023-09-08T07:06:34;24.00;42.90
14604;DHT22;7388;51.078;13.740;2023-09-08T07:09:01;24.10;42.90
14604;DHT22;7388;51.078;13.740;2023-09-08T07:11:27;24.20;42.60
14604;DHT22;7388;51.078;13.740;2023-09-08T07:13:53;24.30;42.50
14604;DHT22;7388;51.078;13.740;2023-09-08T07:16:18;24.40;42.80
14604;DHT22;7388;51.078;13.740;2023-09-08T07:18:44;24.50;42.30
14604;DHT22;7388;51.078;13.740;2023-09-08T07:21:10;24.60;42.30
14604;DHT22;7388;51.078;13.740;2023-09-08T07:23:36;24.80;42.70
14604;DHT22;7388;51.078;13.740;2023-09-08T07:26:02;24.90;42.00
14604;DHT22;7388;51.078;13.740;2023-09-08T07:28:28;25.00;41.60
14604;DHT22;7388;51.078;13.740;2023-09-08T07:31:00;24.50;41.70
14604;DHT22;7388;51.078;13.740;2023-09-08T07:33:25;25.30;41.40
14604;DHT22;7388;51.078;13.740;2023-09-08T07:35:51;25.40;41.10
14604;DHT22;7388;51.078;13.740;2023-09-08T07:38:17;25.60;40.90
14604;DHT22;7388;51.078;13.740;2023-09-08T07:40:42;25.70;40.80
14604;DHT22;7388;51.078;13.740;2023-09-08T07:43:08;25.80;40.50
14604;DHT22;7388;51.078;13.740;2023-09-08T07:45:34;26.00;41.30
14604;DHT22;7388;51.078;13.740;2023-09-08T07:48:00;26.10;41.10
14604;DHT22;7388;51.078;13.740;2023-09-08T07:50:27;26.30;40.60
14604;DHT22;7388;51.078;13.740;2023-09-08T07:52:56;26.30;39.20
14604;DHT22;7388;51.078;13.740;2023-09-08T07:55:22;26.40;39.30
14604;DHT22;7388;51.078;13.740;2023-09-08T07:57:49;26.40;38.10
14604;DHT22;7388;51.078;13.740;2023-09-08T08:00:16;26.50;38.60
14604;DHT22;7388;51.078;13.740;2023-09-08T08:02:54;26.60;39.00
14604;DHT22;7388;51.078;13.740;2023-09-08T08:05:20;26.70;38.40
14604;DHT22;7388;51.078;13.740;2023-09-08T08:07:46;26.70;38.40
14604;DHT22;7388;51.078;13.740;2023-09-08T08:10:12;26.80;38.40
14604;DHT22;7388;51.078;13.740;2023-09-08T08:12:39;26.90;38.80
14604;DHT22;7388;51.078;13.740;2023-09-08T08:15:05;27.00;37.80
14604;DHT22;7388;51.078;13.740;2023-09-08T08:17:31;27.10;38.40
14604;DHT22;7388;51.078;13.740;2023-09-08T08:19:58;27.20;37.60
14604;DHT22;7388;51.078;13.740;2023-09-08T08:22:33;27.20;38.30
14604;DHT22;7388;51.078;13.740;2023-09-08T08:24:58;27.40;37.70
14604;DHT22;7388;51.078;13.740;2023-09-08T08:27:24;27.40;37.90
14604;DHT22;7388;51.078;13.740;2023-09-08T08:29:50;27.50;37.80
14604;DHT22;7388;51.078;13.740;2023-09-08T08:32:17;27.60;37.60
14604;DHT22;7388;51.078;13.740;2023-09-08T08:34:42;27.70;36.20
14604;DHT22;7388;51.078;13.740;2023-09-08T08:37:10;27.80;37.90
14604;DHT22;7388;51.078;13.740;2023-09-08T08:39:36;27.90;37.40
14604;DHT22;7388;51.078;13.740;2023-09-08T08:42:10;28.00;37.00
14604;DHT22;7388;51.078;13.740;2023-09-08T08:44:38;28.20;37.30
14604;DHT22;7388;51.078;13.740;2023-09-08T08:47:06;28.20;37.00
14604;DHT22;7388;51.078;13.740;2023-09-08T08:49:33;28.20;36.80
14604;DHT22;7388;51.078;13.740;2023-09-08T08:51:59;28.30;36.70
14604;DHT22;7388;51.078;13.740;2023-09-08T08:54:26;28.40;36.50
14604;DHT22;7388;51.078;13.740;2023-09-08T08:56:52;28.50;36.50
14604;DHT22;7388;51.078;13.740;2023-09-08T08:59:18;28.60;36.30
14604;DHT22;7388;51.078;13.740;2023-09-08T09:01:45;28.70;35.00
14604;DHT22;7388;51.078;13.740;2023-09-08T09:04:12;28.80;34.90
14604;DHT22;7388;51.078;13.740;2023-09-08T09:06:39;28.70;34.50
14604;DHT22;7388;51.078;13.740;2023-09-08T09:09:04;28.80;33.10
14604;DHT22;7388;51.078;13.740;2023-09-08T09:11:30;28.80;33.20
14604;DHT22;7388;51.078;13.740;2023-09-08T09:13:57;28.90;33.90
14604;DHT22;7388;51.078;13.740;2023-09-08T09:16:23;28.90;34.20
14604;DHT22;7388;51.078;13.740;2023-09-08T09:19:07;29.00;34.00
14604;DHT22;7388;51.078;13.740;2023-09-08T09:21:44;29.10;34.60
14604;DHT22;7388;51.078;13.740;2023-09-08T09:24:17;29.20;34.00
14604;DHT22;7388;51.078;13.740;2023-09-08T09:26:53;29.30;33.60
14604;DHT22;7388;51.078;13.740;2023-09-08T09:29:19;29.30;33.60
14604;DHT22;7388;51.078;13.740;2023-09-08T09:31:52;29.30;33.00
14604;DHT22;7388;51.078;13.740;2023-09-08T09:34:20;29.40;33.70
14604;DHT22;7388;51.078;13.740;2023-09-08T09:36:48;29.40;33.80
14604;DHT22;7388;51.078;13.740;2023-09-08T09:39:22;29.50;33.40
14604;DHT22;7388;51.078;13.740;2023-09-08T09:41:49;29.60;32.40
14604;DHT22;7388;51.078;13.740;2023-09-08T09:44:18;29.60;32.80
14604;DHT22;7388;51.078;13.740;2023-09-08T09:46:45;29.70;33.70
14604;DHT22;7388;51.078;13.740;2023-09-08T09:49:15;29.80;33.50
14604;DHT22;7388;51.078;13.740;2023-09-08T09:51:47;29.90;32.40
14604;DHT22;7388;51.078;13.740;2023-09-08T09:54:14;30.00;32.70
14604;DHT22;7388;51.078;13.740;2023-09-08T09:56:41;30.10;32.40
14604;DHT22;7388;51.078;13.740;2023-09-08T09:59:12;30.10;32.10
14604;DHT22;7388;51.078;13.740;2023-09-08T10:01:41;30.10;31.00
14604;DHT22;7388;51.078;13.740;2023-09-08T10:04:08;30.10;31.30
14604;DHT22;7388;51.078;13.740;2023-09-08T10:06:40;30.30;31.40
14604;DHT22;7388;51.078;13.740;2023-09-08T10:09:06;30.40;30.30
14604;DHT22;7388;51.078;13.740;2023-09-08T10:11:45;30.50;30.10
14604;DHT22;7388;51.078;13.740;2023-09-08T10:14:13;30.60;28.60
14604;DHT22;7388;51.078;13.740;2023-09-08T10:16:40;30.60;27.60
14604;DHT22;7388;51.078;13.740;2023-09-08T10:19:09;30.70;26.60
14604;DHT22;7388;51.078;13.740;2023-09-08T10:21:45;30.60;27.60
14604;DHT22;7388;51.078;13.740;2023-09-08T10:24:29;30.70;28.30
14604;DHT22;7388;51.078;13.740;2023-09-08T10:27:18;30.80;26.70
14604;DHT22;7388;51.078;13.740;2023-09-08T10:29:47;30.80;27.00
14604;DHT22;7388;51.078;13.740;2023-09-08T10:32:14;30.90;26.40
14604;DHT22;7388;51.078;13.740;2023-09-08T10:34:41;30.90;25.20
14604;DHT22;7388;51.078;13.740;2023-09-08T10:37:33;30.90;27.60
14604;DHT22;7388;51.078;13.740;2023-09-08T10:40:31;31.10;27.80
14604;DHT22;7388;51.078;13.740;2023-09-08T10:43:11;31.20;26.60
14604;DHT22;7388;51.078;13.740;2023-09-08T10:45:37;31.20;25.90
14604;DHT22;7388;51.078;13.740;2023-09-08T10:48:06;31.20;26.70
14604;DHT22;7388;51.078;13.740;2023-09-08T10:50:34;31.30;25.50
14604;DHT22;7388;51.078;13.740;2023-09-08T10:53:16;31.30;26.30
14604;DHT22;7388;51.078;13.740;2023-09-08T10:55:49;31.50;26.90
14604;DHT22;7388;51.078;13.740;2023-09-08T11:00:54;31.70;25.50
14604;DHT22;7388;51.078;13.740;2023-09-08T11:03:44;31.60;25.00
14604;DHT22;7388;51.078;13.740;2023-09-08T11:06:10;31.70;24.30
14604;DHT22;7388;51.078;13.740;2023-09-08T11:08:40;31.60;24.20
14604;DHT22;7388;51.078;13.740;2023-09-08T11:11:06;31.70;24.90
14604;DHT22;7388;51.078;13.740;2023-09-08T11:13:32;31.80;24.60
14604;DHT22;7388;51.078;13.740;2023-09-08T11:15:58;31.80;23.80
14604;DHT22;7388;51.078;13.740;2023-09-08T11:18:28;31.80;24.90
14604;DHT22;7388;51.078;13.740;2023-09-08T11:20:54;31.90;23.20
14604;DHT22;7388;51.078;13.740;2023-09-08T11:23:20;31.90;23.60
14604;DHT22;7388;51.078;13.740;2023-09-08T11:25:47;31.80;23.60
14604;DHT22;7388;51.078;13.740;2023-09-08T11:28:13;31.80;23.80
14604;DHT22;7388;51.078;13.740;2023-09-08T11:30:41;31.90;24.80
14604;DHT22;7388;51.078;13.740;2023-09-08T11:33:18;32.00;25.30
14604;DHT22;7388;51.078;13.740;2023-09-08T11:35:47;32.00;24.20
14604;DHT22;7388;51.078;13.740;2023-09-08T11:38:14;32.10;23.50
14604;DHT22;7388;51.078;13.740;2023-09-08T11:40:40;32.10;22.10
14604;DHT22;7388;51.078;13.740;2023-09-08T11:43:06;32.20;23.60
14604;DHT22;7388;51.078;13.740;2023-09-08T11:45:36;32.20;24.20
14604;DHT22;7388;51.078;13.740;2023-09-08T11:48:03;32.20;24.80
14604;DHT22;7388;51.078;13.740;2023-09-08T11:50:30;32.20;24.10
14604;DHT22;7388;51.078;13.740;2023-09-08T11:52:56;32.20;23.80
14604;DHT22;7388;51.078;13.740;2023-09-08T11:55:25;32.20;24.00
14604;DHT22;7388;51.078;13.740;2023-09-08T11:57:55;32.30;23.60
14604;DHT22;7388;51.078;13.740;2023-09-08T12:00:23;32.30;24.40
14604;DHT22;7388;51.078;13.740;2023-09-08T12:02:51;32.30;23.50
14604;DHT22;7388;51.078;13.740;2023-09-08T12:05:21;32.30;24.90
14604;DHT22;7388;51.078;13.740;2023-09-08T12:07:51;32.40;23.70
14604;DHT22;7388;51.078;13.740;2023-09-08T12:10:18;32.40;23.50
14604;DHT22;7388;51.078;13.740;2023-09-08T12:12:49;32.50;24.20
14604;DHT22;7388;51.078;13.740;2023-09-08T12:18:05;32.60;23.60
14604;DHT22;7388;51.078;13.740;2023-09-08T12:20:32;32.60;22.80
14604;DHT22;7388;51.078;13.740;2023-09-08T12:23:02;32.60;23.60
14604;DHT22;7388;51.078;13.740;2023-09-08T12:25:29;32.70;23.40
14604;DHT22;7388;51.078;13.740;2023-09-08T12:27:57;32.60;23.60
14604;DHT22;7388;51.078;13.740;2023-09-08T12:30:24;32.60;24.20
14604;DHT22;7388;51.078;13.740;2023-09-08T12:32:56;32.60;22.70
14604;DHT22;7388;51.078;13.740;2023-09-08T12:35:24;32.70;23.50
14604;DHT22;7388;51.078;13.740;2023-09-08T12:38:01;32.70;23.40
14604;DHT22;7388;51.078;13.740;2023-09-08T12:40:28;32.80;23.20
14604;DHT22;7388;51.078;13.740;2023-09-08T12:42:54;32.90;23.40
14604;DHT22;7388;51.078;13.740;2023-09-08T12:45:22;32.80;23.40
14604;DHT22;7388;51.078;13.740;2023-09-08T12:47:50;32.90;23.90
14604;DHT22;7388;51.078;13.740;2023-09-08T12:50:17;32.90;24.20
14604;DHT22;7388;51.078;13.740;2023-09-08T12:52:43;33.00;23.80
14604;DHT22;7388;51.078;13.740;2023-09-08T12:55:09;33.10;23.10
14604;DHT22;7388;51.078;13.740;2023-09-08T12:57:36;33.20;24.00
14604;DHT22;7388;51.078;13.740;2023-09-08T13:00:03;33.40;22.30
14604;DHT22;7388;51.078;13.740;2023-09-08T13:02:29;33.40;22.30
14604;DHT22;7388;51.078;13.740;2023-09-08T13:04:55;33.40;22.40
14604;DHT22;7388;51.078;13.740;2023-09-08T13:07:21;33.40;21.50
14604;DHT22;7388;51.078;13.740;2023-09-08T13:09:46;33.30;21.00
14604;DHT22;7388;51.078;13.740;2023-09-08T13:12:13;33.30;21.10
14604;DHT22;7388;51.078;13.740;2023-09-08T13:14:39;33.30;21.70
14604;DHT22;7388;51.078;13.740;2023-09-08T13:17:05;33.40;21.30
14604;DHT22;7388;51.078;13.740;2023-09-08T13:19:32;33.50;21.50
14604;DHT22;7388;51.078;13.740;2023-09-08T13:21:58;33.50;21.00
14604;DHT22;7388;51.078;13.740;2023-09-08T13:24:23;33.40;21.10
14604;DHT22;7388;51.078;13.740;2023-09-08T13:26:49;33.30;21.00
14604;DHT22;7388;51.078;13.740;2023-09-08T13:31:42;33.30;21.30
14604;DHT22;7388;51.078;13.740;2023-09-08T13:34:08;33.30;22.40
14604;DHT22;7388;51.078;13.740;2023-09-08T13:36:34;33.30;22.30
14604;DHT22;7388;51.078;13.740;2023-09-08T13:38:59;33.40;22.40
14604;DHT22;7388;51.078;13.740;2023-09-08T13:41:43;33.40;22.20
14604;DHT22;7388;51.078;13.740;2023-09-08T13:44:09;33.60;22.00
14604;DHT22;7388;51.078;13.740;2023-09-08T13:46:35;33.70;22.00
14604;DHT22;7388;51.078;13.740;2023-09-08T13:49:00;33.80;23.10
14604;DHT22;7388;51.078;13.740;2023-09-08T13:51:26;33.90;22.60
14604;DHT22;7388;51.078;13.740;2023-09-08T13:53:52;33.90;21.70
14604;DHT22;7388;51.078;13.740;2023-09-08T13:56:17;34.00;23.40
14604;DHT22;7388;51.078;13.740;2023-09-08T13:58:43;34.00;23.60
14604;DHT22;7388;51.078;13.740;2023-09-08T14:01:11;34.00;22.90
14604;DHT22;7388;51.078;13.740;2023-09-08T14:03:37;34.00;21.70
14604;DHT22;7388;51.078;13.740;2023-09-08T14:06:02;34.00;21.20
14604;DHT22;7388;51.078;13.740;2023-09-08T14:08:28;33.90;21.40
14604;DHT22;7388;51.078;13.740;2023-09-08T14:10:54;33.80;21.70
14604;DHT22;7388;51.078;13.740;2023-09-08T14:13:20;33.80;22.70
14604;DHT22;7388;51.078;13.740;2023-09-08T14:15:45;33.90;22.20
14604;DHT22;7388;51.078;13.740;2023-09-08T14:18:11;34.00;21.80
14604;DHT22;7388;51.078;13.740;2023-09-08T14:20:39;34.00;21.30
14604;DHT22;7388;51.078;13.740;2023-09-08T14:23:05;33.90;21.70
14604;DHT22;7388;51.078;13.740;2023-09-08T14:25:33;33.80;21.50
14604;DHT22;7388;51.078;13.740;2023-09-08T14:27:59;33.70;22.50
14604;DHT22;7388;51.078;13.740;2023-09-08T14:30:24;33.70;21.90
14604;DHT22;7388;51.078;13.740;2023-09-08T14:32:50;33.70;21.70
14604;DHT22;7388;51.078;13.740;2023-09-08T14:35:16;33.70;20.00
14604;DHT22;7388;51.078;13.740;2023-09-08T14:37:42;33.60;21.00
14604;DHT22;7388;51.078;13.740;2023-09-08T14:40:08;33.70;21.70
14604;DHT22;7388;51.078;13.740;2023-09-08T14:42:34;33.80;22.40
14604;DHT22;7388;51.078;13.740;2023-09-08T14:44:59;33.90;24.00
14604;DHT22;7388;51.078;13.740;2023-09-08T14:47:25;34.00;21.50
14604;DHT22;7388;51.078;13.740;2023-09-08T14:49:51;34.00;21.90
14604;DHT22;7388;51.078;13.740;2023-09-08T14:52:16;34.00;21.40
14604;DHT22;7388;51.078;13.740;2023-09-08T14:54:45;34.00;21.60
14604;DHT22;7388;51.078;13.740;2023-09-08T14:57:11;34.00;21.30
14604;DHT22;7388;51.078;13.740;2023-09-08T14:59:37;33.80;20.20
14604;DHT22;7388;51.078;13.740;2023-09-08T15:02:03;33.70;20.00
14604;DHT22;7388;51.078;13.740;2023-09-08T15:04:29;33.60;19.70
14604;DHT22;7388;51.078;13.740;2023-09-08T15:06:54;33.50;21.20
14604;DHT22;7388;51.078;13.740;2023-09-08T15:09:20;33.60;21.20
14604;DHT22;7388;51.078;13.740;2023-09-08T15:11:46;33.70;21.70
14604;DHT22;7388;51.078;13.740;2023-09-08T15:14:12;33.60;22.20
14604;DHT22;7388;51.078;13.740;2023-09-08T15:16:38;33.70;22.00
14604;DHT22;7388;51.078;13.740;2023-09-08T15:19:03;33.60;22.10
14604;DHT22;7388;51.078;13.740;2023-09-08T15:21:29;33.50;21.60
14604;DHT22;7388;51.078;13.740;2023-09-08T15:23:57;33.40;21.90
14604;DHT22;7388;51.078;13.740;2023-09-08T15:26:23;33.30;22.20
14604;DHT22;7388;51.078;13.740;2023-09-08T15:28:49;33.30;22.90
14604;DHT22;7388;51.078;13.740;2023-09-08T15:31:16;33.10;22.20
14604;DHT22;7388;51.078;13.740;2023-09-08T15:33:42;33.00;22.60
14604;DHT22;7388;51.078;13.740;2023-09-08T15:36:08;32.90;22.90
14604;DHT22;7388;51.078;13.740;2023-09-08T15:38:34;32.80;21.50
14604;DHT22;7388;51.078;13.740;2023-09-08T15:43:41;32.60;22.40
14604;DHT22;7388;51.078;13.740;2023-09-08T15:46:07;32.50;22.90
14604;DHT22;7388;51.078;13.740;2023-09-08T15:48:39;32.50;23.10